createdAt,value
2023-04-16T00:00:08.910Z,3.09
2023-04-16T00:05:12.475Z,3.03
2023-04-16T00:10:17.664Z,2.95
2023-04-16T00:15:22.935Z,2.89
2023-04-16T00:20:26.405Z,2.67
2023-04-16T00:25:31.511Z,2.42
2023-04-16T00:30:35.384Z,2.46
2023-04-16T00:35:39.373Z,2.36
2023-04-16T00:40:44.575Z,2.34
2023-04-16T00:45:48.473Z,2.44
2023-04-16T00:50:52.030Z,2.56
2023-04-16T00:55:58.395Z,2.64
2023-04-16T01:01:02.234Z,2.64
2023-04-16T01:06:07.538Z,2.55
2023-04-16T01:11:13.257Z,2.43
2023-04-16T01:16:16.997Z,2.25
2023-04-16T01:21:22.074Z,2.20
2023-04-16T01:26:25.285Z,2.25
2023-04-16T01:31:28.787Z,2.21
2023-04-16T01:36:34.015Z,2.30
2023-04-16T01:41:37.523Z,2.34
2023-04-16T01:46:41.313Z,2.47
2023-04-16T01:51:46.166Z,2.54
2023-04-16T01:56:49.710Z,2.61
2023-04-16T02:01:53.236Z,2.66
2023-04-16T02:06:58.109Z,2.67
2023-04-16T02:12:02.289Z,2.70
2023-04-16T02:17:06.366Z,2.65
2023-04-16T02:22:11.334Z,2.60
2023-04-16T02:27:14.669Z,2.51
2023-04-16T02:32:18.519Z,2.41
2023-04-16T02:37:23.448Z,2.44
2023-04-16T02:42:27.012Z,2.38
2023-04-16T02:47:30.738Z,2.34
2023-04-16T02:52:35.874Z,2.31
2023-04-16T02:57:39.465Z,2.26
2023-04-16T03:02:43.091Z,2.28
2023-04-16T03:07:47.968Z,2.37
2023-04-16T03:12:51.521Z,2.46
2023-04-16T03:17:55.218Z,2.56
2023-04-16T03:23:00.478Z,2.72
2023-04-16T03:28:04.238Z,3.05
2023-04-16T03:33:07.957Z,3.38
2023-04-16T03:38:12.855Z,3.72
2023-04-16T03:43:16.191Z,3.85
2023-04-16T03:48:19.716Z,4.08
2023-04-16T03:53:24.593Z,4.44
2023-04-16T03:58:28.099Z,4.85
2023-04-16T04:03:31.676Z,5.38
2023-04-16T04:08:37.126Z,10.03
2023-04-16T04:13:40.890Z,11.85
2023-04-16T04:18:44.668Z,13.06
2023-04-16T04:23:49.612Z,14.24
2023-04-16T04:28:52.792Z,14.72
2023-04-16T04:33:56.257Z,16.03
2023-04-16T04:39:01.219Z,13.38
2023-04-16T04:44:04.995Z,14.20
2023-04-16T04:49:08.867Z,15.42
2023-04-16T04:54:13.980Z,15.46
2023-04-16T04:59:17.181Z,17.88
2023-04-16T05:04:20.792Z,17.97
2023-04-16T05:09:25.980Z,19.65
2023-04-16T05:14:29.470Z,18.41
2023-04-16T05:19:32.931Z,18.10
2023-04-16T05:24:37.814Z,18.79
2023-04-16T05:29:41.524Z,18.06
2023-04-16T05:34:44.994Z,20.50
2023-04-16T05:39:50.232Z,22.52
2023-04-16T05:44:53.934Z,23.52
2023-04-16T05:49:57.454Z,25.40
2023-04-16T05:55:02.368Z,26.38
2023-04-16T06:00:08.908Z,28.62
2023-04-16T06:05:12.471Z,30.38
2023-04-16T06:10:17.707Z,31.65
2023-04-16T06:15:21.444Z,29.63
2023-04-16T06:20:24.702Z,29.80
2023-04-16T06:25:29.537Z,30.98
2023-04-16T06:30:33.054Z,31.15
2023-04-16T06:35:36.291Z,30.90
2023-04-16T06:40:41.263Z,29.93
2023-04-16T06:45:44.765Z,28.48
2023-04-16T06:50:48.325Z,29.98
2023-04-16T06:55:52.888Z,28.71
2023-04-16T07:00:56.438Z,27.53
2023-04-16T07:05:59.935Z,25.69
2023-04-16T07:11:04.843Z,25.40
2023-04-16T07:16:08.660Z,22.98
2023-04-16T07:21:12.114Z,22.91
2023-04-16T07:26:18.332Z,20.90
2023-04-16T07:31:22.219Z,19.71
2023-04-16T07:36:27.902Z,18.31
2023-04-16T07:41:32.844Z,17.11
2023-04-16T07:46:46.345Z,18.36
2023-04-16T07:51:51.221Z,19.66
2023-04-16T07:56:56.471Z,19.55
2023-04-16T08:02:00.274Z,21.44
2023-04-16T08:07:04.035Z,22.50
2023-04-16T08:12:09.085Z,22.26
2023-04-16T08:17:12.626Z,20.53
2023-04-16T08:22:16.813Z,19.51
2023-04-16T08:27:21.748Z,18.72
2023-04-16T08:32:26.105Z,19.21
2023-04-16T08:37:29.897Z,18.95
2023-04-16T08:42:42.254Z,17.86
2023-04-16T08:47:48.796Z,17.48
2023-04-16T08:52:54.296Z,17.07
2023-04-16T08:58:00.907Z,16.59
2023-04-16T09:03:05.806Z,17.02
2023-04-16T09:08:09.901Z,17.08
2023-04-16T09:13:17.069Z,16.59
2023-04-16T09:18:21.838Z,16.26
2023-04-16T09:23:26.250Z,15.81
2023-04-16T09:28:45.782Z,15.47
2023-04-16T09:34:03.487Z,14.58
2023-04-16T09:39:07.574Z,14.70
2023-04-16T09:44:12.836Z,14.24
2023-04-16T09:49:18.755Z,14.90
2023-04-16T09:54:22.495Z,15.04
2023-04-16T09:59:34.023Z,14.99
2023-04-16T10:04:48.010Z,14.97
2023-04-16T10:09:52.761Z,14.91
2023-04-16T10:14:57.515Z,14.80
2023-04-16T10:20:03.020Z,15.08
2023-04-16T10:25:09.097Z,15.90
2023-04-16T10:30:17.009Z,16.15
2023-04-16T10:35:21.661Z,15.79
2023-04-16T10:40:26.652Z,14.90
2023-04-16T10:45:39.339Z,14.00
2023-04-16T10:50:42.841Z,13.61
2023-04-16T10:56:12.366Z,13.63
2023-04-16T11:01:17.537Z,13.39
2023-04-16T11:06:27.112Z,13.34
2023-04-16T11:11:39.535Z,13.77
2023-04-16T11:16:44.536Z,13.70
2023-04-16T11:21:48.117Z,14.00
2023-04-16T11:26:53.302Z,13.38
2023-04-16T11:31:58.469Z,13.53
2023-04-16T11:37:01.987Z,13.27
2023-04-16T11:42:05.784Z,13.64
2023-04-16T11:47:13.932Z,13.44
2023-04-16T11:52:27.746Z,13.38
2023-04-16T11:57:32.638Z,13.63
2023-04-16T12:02:38.059Z,13.66
2023-04-16T12:07:47.569Z,13.78
2023-04-16T12:12:51.346Z,13.96
2023-04-16T12:18:08.599Z,13.74
2023-04-16T12:23:14.073Z,13.46
2023-04-16T12:28:29.079Z,13.34
2023-04-16T12:33:33.707Z,13.46
2023-04-16T12:38:37.199Z,13.47
2023-04-16T12:43:40.782Z,13.48
2023-04-16T12:48:46.266Z,13.40
2023-04-16T12:53:50.203Z,13.59
2023-04-16T12:58:53.836Z,13.78
2023-04-16T13:03:58.935Z,13.49
2023-04-16T13:09:02.583Z,13.65
2023-04-16T13:14:06.569Z,13.75
2023-04-16T13:19:11.890Z,13.68
2023-04-16T13:24:15.612Z,13.57
2023-04-16T13:29:19.084Z,13.24
2023-04-16T13:34:24.302Z,13.24
2023-04-16T13:39:27.894Z,13.08
2023-04-16T13:44:31.667Z,12.97
2023-04-16T13:49:36.735Z,13.11
2023-04-16T13:54:40.679Z,13.07
2023-04-16T13:59:44.192Z,12.96
2023-04-16T14:04:49.090Z,12.87
2023-04-16T14:09:52.547Z,12.68
2023-04-16T14:14:56.158Z,12.64
2023-04-16T14:20:01.056Z,12.59
2023-04-16T14:25:05.379Z,12.68
2023-04-16T14:30:09.834Z,12.94
2023-04-16T14:35:14.980Z,13.30
2023-04-16T14:40:18.453Z,13.36
2023-04-16T14:45:22.214Z,13.74
2023-04-16T14:50:27.230Z,13.89
2023-04-16T14:55:30.931Z,13.46
2023-04-16T15:00:36.058Z,13.75
2023-04-16T15:05:41.392Z,13.66
2023-04-16T15:10:45.975Z,13.36
2023-04-16T15:15:49.663Z,13.25
2023-04-16T15:20:55.952Z,13.02
2023-04-16T15:25:59.920Z,12.99
2023-04-16T15:31:03.505Z,12.87
2023-04-16T15:36:08.953Z,12.84
2023-04-16T15:41:12.563Z,12.73
2023-04-16T15:46:16.505Z,12.52
2023-04-16T15:51:21.850Z,12.42
2023-04-16T15:56:25.499Z,12.25
2023-04-16T16:01:28.967Z,12.10
2023-04-16T16:06:33.949Z,11.92
2023-04-16T16:11:38.548Z,11.83
2023-04-16T16:16:42.382Z,11.69
2023-04-16T16:21:47.549Z,11.67
2023-04-16T16:26:51.216Z,11.63
2023-04-16T16:31:54.876Z,11.65
2023-04-16T16:36:59.922Z,11.57
2023-04-16T16:42:03.496Z,11.48
2023-04-16T16:47:07.137Z,11.42
2023-04-16T16:52:12.154Z,11.24
2023-04-16T16:57:15.767Z,11.24
2023-04-16T17:02:19.763Z,11.21
2023-04-16T17:07:24.792Z,11.23
2023-04-16T17:12:28.560Z,11.24
2023-04-16T17:17:32.840Z,11.16
2023-04-16T17:22:38.810Z,11.01
2023-04-16T17:27:42.616Z,10.96
2023-04-16T17:32:46.322Z,10.88
2023-04-16T17:37:51.201Z,10.77
2023-04-16T17:42:54.383Z,10.66
2023-04-16T17:47:57.908Z,10.57
2023-04-16T17:53:03.781Z,10.58
2023-04-16T17:58:07.548Z,10.51
2023-04-16T18:03:11.707Z,10.36
2023-04-16T18:08:16.864Z,10.26
2023-04-16T18:13:20.598Z,10.29
2023-04-16T18:18:24.093Z,10.12
2023-04-16T18:23:28.994Z,10.21
2023-04-16T18:28:32.404Z,10.17
2023-04-16T18:33:53.957Z,10.02
2023-04-16T18:39:02.651Z,9.97
2023-04-16T18:44:06.918Z,9.89
2023-04-16T18:49:10.838Z,9.82
2023-04-16T18:54:16.774Z,9.74
2023-04-16T18:59:20.367Z,9.63
2023-04-16T19:04:24.101Z,9.42
2023-04-16T19:09:29.098Z,9.48
2023-04-16T19:14:32.313Z,9.33
2023-04-16T19:19:36.059Z,9.14
2023-04-16T19:24:40.988Z,9.06
2023-04-16T19:29:45.526Z,8.98
2023-04-16T19:34:49.006Z,8.80
2023-04-16T19:39:54.922Z,8.73
2023-04-16T19:44:58.513Z,8.70
2023-04-16T19:50:02.355Z,8.70
2023-04-16T19:55:10.124Z,8.76
2023-04-16T20:00:14.649Z,8.76
2023-04-16T20:05:18.568Z,8.73
2023-04-16T20:10:23.502Z,8.71
2023-04-16T20:15:27.410Z,8.65
2023-04-16T20:20:30.912Z,8.61
2023-04-16T20:25:35.828Z,8.57
2023-04-16T20:30:40.059Z,8.59
2023-04-16T20:35:43.741Z,8.59
2023-04-16T20:40:48.599Z,8.53
2023-04-16T20:45:52.498Z,8.56
2023-04-16T20:50:59.735Z,8.65
2023-04-16T20:56:04.726Z,8.62
2023-04-16T21:01:08.560Z,8.66
2023-04-16T21:06:14.576Z,8.71
2023-04-16T21:11:19.701Z,8.78
2023-04-16T21:16:23.392Z,8.68
2023-04-16T21:21:27.652Z,8.68
2023-04-16T21:26:32.620Z,8.77
2023-04-16T21:31:35.846Z,8.74
2023-04-16T21:36:39.330Z,8.67
2023-04-16T21:41:44.239Z,8.71
2023-04-16T21:46:47.459Z,8.73
2023-04-16T21:51:59.320Z,8.69
2023-04-16T21:57:04.617Z,8.68
2023-04-16T22:02:08.218Z,8.62
2023-04-16T22:07:11.938Z,8.60
2023-04-16T22:12:17.192Z,8.57
2023-04-16T22:17:20.799Z,8.55
2023-04-16T22:22:24.691Z,8.40
2023-04-16T22:27:29.539Z,8.31
2023-04-16T22:32:33.370Z,8.12
2023-04-16T22:37:37.096Z,8.12
2023-04-16T22:42:42.103Z,7.93
2023-04-16T22:47:45.670Z,7.84
2023-04-16T22:52:49.198Z,7.73
2023-04-16T22:57:54.307Z,7.68
2023-04-16T23:02:58.009Z,7.79
2023-04-16T23:08:01.579Z,7.85
2023-04-16T23:13:06.668Z,7.87
2023-04-16T23:18:09.923Z,7.85
2023-04-16T23:23:13.370Z,7.78
2023-04-16T23:28:18.451Z,7.73
2023-04-16T23:33:22.472Z,7.71
2023-04-16T23:38:25.950Z,7.64
2023-04-16T23:43:31.009Z,7.65
2023-04-16T23:48:34.335Z,7.65
2023-04-16T23:53:37.733Z,7.48
2023-04-16T23:58:42.648Z,7.55
